sensor_id;sensor_type;location;lat;lon;timestamp;pressure;altitude;pressure_sealevel;temperature;humidity
40650;BME280;26342;42.826;23.992;2023-11-21T00:00:05;95168.22;;;3.05;100.00
40650;BME280;26342;42.826;23.992;2023-11-21T00:02:35;95165.22;;;3.01;100.00
40650;BME280;26342;42.826;23.992;2023-11-21T00:05:02;95167.88;;;3.01;100.00
40650;BME280;26342;42.826;23.992;2023-11-21T00:07:28;95164.19;;;3.02;100.00
40650;BME280;26342;42.826;23.992;2023-11-21T00:09:53;95166.41;;;3.05;100.00
40650;BME280;26342;42.826;23.992;2023-11-21T00:12:21;95168.00;;;3.06;100.00
40650;BME280;26342;42.826;23.992;2023-11-21T00:14:46;95163.00;;;2.98;100.00
40650;BME280;26342;42.826;23.992;2023-11-21T00:17:12;95165.28;;;2.95;100.00
40650;BME280;26342;42.826;23.992;2023-11-21T00:19:37;95171.13;;;2.97;100.00
40650;BME280;26342;42.826;23.992;2023-11-21T00:22:03;95160.59;;;2.97;100.00
40650;BME280;26342;42.826;23.992;2023-11-21T00:24:28;95163.00;;;2.98;100.00
40650;BME280;26342;42.826;23.992;2023-11-21T00:26:53;95159.56;;;2.98;100.00
40650;BME280;26342;42.826;23.992;2023-11-21T00:29:19;95158.56;;;2.92;100.00
40650;BME280;26342;42.826;23.992;2023-11-21T00:31:44;95157.09;;;2.78;100.00
40650;BME280;26342;42.826;23.992;2023-11-21T00:34:12;95150.03;;;2.72;100.00
40650;BME280;26342;42.826;23.992;2023-11-21T00:36:37;95149.97;;;2.78;100.00
40650;BME280;26342;42.826;23.992;2023-11-21T00:39:03;95138.09;;;2.69;100.00
40650;BME280;26342;42.826;23.992;2023-11-21T00:41:29;95156.06;;;2.79;100.00
40650;BME280;26342;42.826;23.992;2023-11-21T00:43:54;95151.81;;;2.78;100.00
40650;BME280;26342;42.826;23.992;2023-11-21T00:46:20;95146.72;;;2.76;100.00
40650;BME280;26342;42.826;23.992;2023-11-21T00:48:46;95152.84;;;2.77;100.00
40650;BME280;26342;42.826;23.992;2023-11-21T00:51:11;95146.31;;;2.79;100.00
40650;BME280;26342;42.826;23.992;2023-11-21T00:53:37;95152.22;;;2.75;100.00
40650;BME280;26342;42.826;23.992;2023-11-21T00:56:02;95155.88;;;2.74;100.00
40650;BME280;26342;42.826;23.992;2023-11-21T00:58:28;95151.84;;;2.71;100.00
40650;BME280;26342;42.826;23.992;2023-11-21T01:00:53;95150.03;;;2.72;100.00
40650;BME280;26342;42.826;23.992;2023-11-21T01:03:18;95145.56;;;2.72;100.00
40650;BME280;26342;42.826;23.992;2023-11-21T01:05:44;95142.13;;;2.72;100.00
40650;BME280;26342;42.826;23.992;2023-11-21T01:08:11;95146.72;;;2.76;100.00
40650;BME280;26342;42.826;23.992;2023-11-21T01:10:36;95137.44;;;2.74;100.00
40650;BME280;26342;42.826;23.992;2023-11-21T01:13:02;95134.25;;;2.65;100.00
40650;BME280;26342;42.826;23.992;2023-11-21T01:15:30;95142.72;;;2.74;100.00
40650;BME280;26342;42.826;23.992;2023-11-21T01:17:56;95134.81;;;2.74;100.00
40650;BME280;26342;42.826;23.992;2023-11-21T01:20:21;95134.59;;;2.75;100.00
40650;BME280;26342;42.826;23.992;2023-11-21T01:22:46;95128.72;;;2.73;100.00
40650;BME280;26342;42.826;23.992;2023-11-21T01:25:14;95122.31;;;2.63;100.00
40650;BME280;26342;42.826;23.992;2023-11-21T01:27:39;95123.72;;;2.65;100.00
40650;BME280;26342;42.826;23.992;2023-11-21T01:30:05;95123.91;;;2.70;100.00
40650;BME280;26342;42.826;23.992;2023-11-21T01:32:33;95124.44;;;2.79;100.00
40650;BME280;26342;42.826;23.992;2023-11-21T01:34:59;95122.38;;;2.81;100.00
40650;BME280;26342;42.826;23.992;2023-11-21T01:37:25;95122.81;;;2.78;100.00
40650;BME280;26342;42.826;23.992;2023-11-21T01:39:55;95113.72;;;2.74;100.00
40650;BME280;26342;42.826;23.992;2023-11-21T01:42:21;95116.56;;;2.72;100.00
40650;BME280;26342;42.826;23.992;2023-11-21T01:44:46;95103.22;;;2.67;100.00
40650;BME280;26342;42.826;23.992;2023-11-21T01:47:13;95102.88;;;2.64;100.00
40650;BME280;26342;42.826;23.992;2023-11-21T01:49:39;95101.47;;;2.61;100.00
40650;BME280;26342;42.826;23.992;2023-11-21T01:52:05;95107.09;;;2.65;100.00
40650;BME280;26342;42.826;23.992;2023-11-21T01:54:32;95112.59;;;2.63;100.00
40650;BME280;26342;42.826;23.992;2023-11-21T01:56:58;95116.25;;;2.62;100.00
40650;BME280;26342;42.826;23.992;2023-11-21T01:59:32;95110.09;;;2.68;100.00
40650;BME280;26342;42.826;23.992;2023-11-21T02:01:59;95102.06;;;2.63;100.00
40650;BME280;26342;42.826;23.992;2023-11-21T02:04:24;95100.28;;;2.57;100.00
40650;BME280;26342;42.826;23.992;2023-11-21T02:06:50;95101.25;;;2.63;100.00
40650;BME280;26342;42.826;23.992;2023-11-21T02:09:16;95100.09;;;2.52;100.00
40650;BME280;26342;42.826;23.992;2023-11-21T02:11:42;95094.25;;;2.50;100.00
40650;BME280;26342;42.826;23.992;2023-11-21T02:14:09;95115.28;;;2.57;100.00
40650;BME280;26342;42.826;23.992;2023-11-21T02:16:35;95099.13;;;2.46;100.00
40650;BME280;26342;42.826;23.992;2023-11-21T02:19:02;95102.91;;;2.57;100.00
40650;BME280;26342;42.826;23.992;2023-11-21T02:21:28;95099.03;;;2.60;100.00
40650;BME280;26342;42.826;23.992;2023-11-21T02:23:55;95106.56;;;2.56;100.00
40650;BME280;26342;42.826;23.992;2023-11-21T02:26:20;95108.16;;;2.57;100.00
40650;BME280;26342;42.826;23.992;2023-11-21T02:28:46;95108.50;;;2.67;100.00
40650;BME280;26342;42.826;23.992;2023-11-21T02:31:11;95102.66;;;2.65;100.00
40650;BME280;26342;42.826;23.992;2023-11-21T02:33:37;95093.34;;;2.63;100.00
40650;BME280;26342;42.826;23.992;2023-11-21T02:36:03;95104.47;;;2.65;100.00
40650;BME280;26342;42.826;23.992;2023-11-21T02:38:29;95104.84;;;2.68;100.00
40650;BME280;26342;42.826;23.992;2023-11-21T02:40:57;95095.50;;;2.72;100.00
40650;BME280;26342;42.826;23.992;2023-11-21T02:43:23;95094.28;;;2.68;100.00
40650;BME280;26342;42.826;23.992;2023-11-21T02:45:48;95092.94;;;2.59;100.00
40650;BME280;26342;42.826;23.992;2023-11-21T02:48:14;95090.75;;;2.56;100.00
40650;BME280;26342;42.826;23.992;2023-11-21T02:50:39;95080.22;;;2.56;100.00
40650;BME280;26342;42.826;23.992;2023-11-21T02:53:05;95093.84;;;2.53;100.00
40650;BME280;26342;42.826;23.992;2023-11-21T02:55:32;95088.97;;;2.50;100.00
40650;BME280;26342;42.826;23.992;2023-11-21T02:58:01;95094.47;;;2.48;100.00
40650;BME280;26342;42.826;23.992;2023-11-21T03:00:26;95085.56;;;2.43;100.00
40650;BME280;26342;42.826;23.992;2023-11-21T03:02:54;95086.38;;;2.43;100.00
40650;BME280;26342;42.826;23.992;2023-11-21T03:05:20;95097.09;;;2.48;100.00
40650;BME280;26342;42.826;23.992;2023-11-21T03:07:46;95092.25;;;2.45;100.00
40650;BME280;26342;42.826;23.992;2023-11-21T03:10:12;95083.16;;;2.41;100.00
40650;BME280;26342;42.826;23.992;2023-11-21T03:12:38;95082.94;;;2.43;100.00
40650;BME280;26342;42.826;23.992;2023-11-21T03:15:05;95090.47;;;2.39;100.00
40650;BME280;26342;42.826;23.992;2023-11-21T03:17:31;95083.19;;;2.35;100.00
40650;BME280;26342;42.826;23.992;2023-11-21T03:19:56;95087.63;;;2.41;100.00
40650;BME280;26342;42.826;23.992;2023-11-21T03:22:22;95088.63;;;2.40;100.00
40650;BME280;26342;42.826;23.992;2023-11-21T03:24:48;95087.03;;;2.39;100.00
40650;BME280;26342;42.826;23.992;2023-11-21T03:27:14;95079.34;;;2.37;100.00
40650;BME280;26342;42.826;23.992;2023-11-21T03:29:39;95076.91;;;2.36;100.00
40650;BME280;26342;42.826;23.992;2023-11-21T03:32:05;95081.97;;;2.37;100.00
40650;BME280;26342;42.826;23.992;2023-11-21T03:34:32;95086.63;;;2.35;100.00
40650;BME280;26342;42.826;23.992;2023-11-21T03:36:57;95080.78;;;2.33;100.00
40650;BME280;26342;42.826;23.992;2023-11-21T03:39:23;95080.56;;;2.35;100.00
40650;BME280;26342;42.826;23.992;2023-11-21T03:41:50;95079.97;;;2.33;100.00
40650;BME280;26342;42.826;23.992;2023-11-21T03:44:17;95078.59;;;2.30;100.00
40650;BME280;26342;42.826;23.992;2023-11-21T03:46:43;95080.44;;;2.23;100.00
40650;BME280;26342;42.826;23.992;2023-11-21T03:49:09;95096.63;;;2.27;100.00
40650;BME280;26342;42.826;23.992;2023-11-21T03:51:36;95093.13;;;2.33;100.00
40650;BME280;26342;42.826;23.992;2023-11-21T03:54:02;95098.63;;;2.31;100.00
40650;BME280;26342;42.826;23.992;2023-11-21T03:56:27;95089.50;;;2.27;100.00
40650;BME280;26342;42.826;23.992;2023-11-21T03:58:53;95082.44;;;2.28;100.00
40650;BME280;26342;42.826;23.992;2023-11-21T04:01:22;95076.34;;;2.27;100.00
40650;BME280;26342;42.826;23.992;2023-11-21T04:03:49;95049.50;;;2.12;100.00
40650;BME280;26342;42.826;23.992;2023-11-21T04:06:15;95078.88;;;2.15;100.00
40650;BME280;26342;42.826;23.992;2023-11-21T04:08:42;95084.50;;;2.19;100.00
40650;BME280;26342;42.826;23.992;2023-11-21T04:11:08;95076.81;;;2.17;100.00
40650;BME280;26342;42.826;23.992;2023-11-21T04:13:34;95085.16;;;2.14;100.00
40650;BME280;26342;42.826;23.992;2023-11-21T04:15:59;95090.19;;;2.16;100.00
40650;BME280;26342;42.826;23.992;2023-11-21T04:18:24;95095.00;;;2.26;100.00
40650;BME280;26342;42.826;23.992;2023-11-21T04:20:50;95094.63;;;2.22;100.00
40650;BME280;26342;42.826;23.992;2023-11-21T04:23:16;95101.50;;;2.23;100.00
40650;BME280;26342;42.826;23.992;2023-11-21T04:25:42;95102.31;;;2.23;100.00
40650;BME280;26342;42.826;23.992;2023-11-21T04:28:08;95091.78;;;2.23;100.00
40650;BME280;26342;42.826;23.992;2023-11-21T04:30:33;95088.94;;;2.25;100.00
40650;BME280;26342;42.826;23.992;2023-11-21T04:32:59;95070.31;;;2.20;100.00
40650;BME280;26342;42.826;23.992;2023-11-21T04:35:24;95092.97;;;2.28;100.00
40650;BME280;26342;42.826;23.992;2023-11-21T04:37:49;95092.91;;;2.34;100.00
40650;BME280;26342;42.826;23.992;2023-11-21T04:40:16;95079.78;;;2.28;100.00
40650;BME280;26342;42.826;23.992;2023-11-21T04:42:41;95073.94;;;2.26;100.00
40650;BME280;26342;42.826;23.992;2023-11-21T04:45:08;95086.25;;;2.32;100.00
40650;BME280;26342;42.826;23.992;2023-11-21T04:47:34;95086.22;;;2.38;100.00
40650;BME280;26342;42.826;23.992;2023-11-21T04:50:00;95072.03;;;2.39;100.00
40650;BME280;26342;42.826;23.992;2023-11-21T04:52:25;95070.03;;;2.35;100.00
40650;BME280;26342;42.826;23.992;2023-11-21T04:54:51;95073.22;;;2.43;100.00
40650;BME280;26342;42.826;23.992;2023-11-21T04:57:16;95066.38;;;2.36;100.00
40650;BME280;26342;42.826;23.992;2023-11-21T04:59:44;95084.94;;;2.47;100.00
40650;BME280;26342;42.826;23.992;2023-11-21T05:02:09;95083.34;;;2.46;100.00
40650;BME280;26342;42.826;23.992;2023-11-21T05:04:34;95088.56;;;2.53;100.00
40650;BME280;26342;42.826;23.992;2023-11-21T05:07:00;95088.75;;;2.51;100.00
40650;BME280;26342;42.826;23.992;2023-11-21T05:09:26;95079.81;;;2.52;100.00
40650;BME280;26342;42.826;23.992;2023-11-21T05:11:53;95089.50;;;2.59;100.00
40650;BME280;26342;42.826;23.992;2023-11-21T05:14:19;95086.88;;;2.59;100.00
40650;BME280;26342;42.826;23.992;2023-11-21T05:16:46;95089.69;;;2.64;100.00
40650;BME280;26342;42.826;23.992;2023-11-21T05:19:11;95080.22;;;2.56;100.00
40650;BME280;26342;42.826;23.992;2023-11-21T05:21:38;95089.72;;;2.57;100.00
40650;BME280;26342;42.826;23.992;2023-11-21T05:24:04;95088.56;;;2.53;100.00
40650;BME280;26342;42.826;23.992;2023-11-21T05:26:30;95086.91;;;2.52;100.00
40650;BME280;26342;42.826;23.992;2023-11-21T05:28:56;95095.84;;;2.51;100.00
40650;BME280;26342;42.826;23.992;2023-11-21T05:31:21;95093.00;;;2.52;100.00
40650;BME280;26342;42.826;23.992;2023-11-21T05:33:47;95085.75;;;2.48;100.00
40650;BME280;26342;42.826;23.992;2023-11-21T05:36:12;95086.91;;;2.52;100.00
40650;BME280;26342;42.826;23.992;2023-11-21T05:38:38;95071.72;;;2.54;100.00
40650;BME280;26342;42.826;23.992;2023-11-21T05:41:04;95068.47;;;2.52;100.00
40650;BME280;26342;42.826;23.992;2023-11-21T05:43:30;95059.00;;;2.44;100.00
40650;BME280;26342;42.826;23.992;2023-11-21T05:45:56;95079.63;;;2.54;100.00
40650;BME280;26342;42.826;23.992;2023-11-21T05:48:22;95084.47;;;2.57;100.00
40650;BME280;26342;42.826;23.992;2023-11-21T05:50:48;95090.94;;;2.61;100.00
40650;BME280;26342;42.826;23.992;2023-11-21T05:53:15;95093.16;;;2.58;100.00
40650;BME280;26342;42.826;23.992;2023-11-21T05:55:41;95101.47;;;2.61;100.00
40650;BME280;26342;42.826;23.992;2023-11-21T05:58:07;95092.53;;;2.62;100.00
40650;BME280;26342;42.826;23.992;2023-11-21T06:00:33;95086.63;;;2.67;100.00
40650;BME280;26342;42.826;23.992;2023-11-21T06:02:59;95072.06;;;2.64;100.00
40650;BME280;26342;42.826;23.992;2023-11-21T06:05:25;95073.84;;;2.70;100.00
40650;BME280;26342;42.826;23.992;2023-11-21T06:07:52;95083.31;;;2.78;100.00
40650;BME280;26342;42.826;23.992;2023-11-21T06:10:22;95092.78;;;2.86;100.00
40650;BME280;26342;42.826;23.992;2023-11-21T06:12:49;95087.41;;;2.92;100.00
40650;BME280;26342;42.826;23.992;2023-11-21T06:15:14;95093.88;;;2.96;100.00
40650;BME280;26342;42.826;23.992;2023-11-21T06:17:41;95088.41;;;2.98;100.00
40650;BME280;26342;42.826;23.992;2023-11-21T06:20:10;95088.94;;;3.06;100.00
40650;BME280;26342;42.826;23.992;2023-11-21T06:22:41;95082.84;;;3.06;100.00
40650;BME280;26342;42.826;23.992;2023-11-21T06:25:07;95096.59;;;3.08;100.00
40650;BME280;26342;42.826;23.992;2023-11-21T06:27:38;95098.16;;;3.16;100.00
40650;BME280;26342;42.826;23.992;2023-11-21T06:30:04;95092.47;;;3.19;100.00
40650;BME280;26342;42.826;23.992;2023-11-21T06:32:31;95088.16;;;3.24;100.00
40650;BME280;26342;42.826;23.992;2023-11-21T06:34:57;95096.66;;;3.26;100.00
40650;BME280;26342;42.826;23.992;2023-11-21T06:37:26;95102.75;;;3.27;100.00
40650;BME280;26342;42.826;23.992;2023-11-21T06:39:52;95106.34;;;3.32;100.00
40650;BME280;26342;42.826;23.992;2023-11-21T06:42:18;95105.44;;;3.39;100.00
40650;BME280;26342;42.826;23.992;2023-11-21T06:44:47;95097.19;;;3.35;100.00
40650;BME280;26342;42.826;23.992;2023-11-21T06:47:13;95084.81;;;3.35;100.00
40650;BME280;26342;42.826;23.992;2023-11-21T06:49:39;95099.69;;;3.48;100.00
40650;BME280;26342;42.826;23.992;2023-11-21T06:52:04;95090.38;;;3.46;100.00
40650;BME280;26342;42.826;23.992;2023-11-21T06:54:34;95078.66;;;3.42;100.00
40650;BME280;26342;42.826;23.992;2023-11-21T06:57:00;95093.31;;;3.56;100.00
40650;BME280;26342;42.826;23.992;2023-11-21T06:59:25;95087.22;;;3.55;100.00
40650;BME280;26342;42.826;23.992;2023-11-21T07:01:51;95091.03;;;3.59;100.00
40650;BME280;26342;42.826;23.992;2023-11-21T07:04:16;95087.88;;;3.69;100.00
40650;BME280;26342;42.826;23.992;2023-11-21T07:06:42;95092.75;;;3.72;100.00
40650;BME280;26342;42.826;23.992;2023-11-21T07:09:08;95091.41;;;3.81;100.00
40650;BME280;26342;42.826;23.992;2023-11-21T07:11:34;95087.50;;;3.84;100.00
40650;BME280;26342;42.826;23.992;2023-11-21T07:14:00;95095.94;;;3.92;100.00
40650;BME280;26342;42.826;23.992;2023-11-21T07:16:31;95083.84;;;4.03;100.00
40650;BME280;26342;42.826;23.992;2023-11-21T07:19:00;95070.41;;;4.05;100.00
40650;BME280;26342;42.826;23.992;2023-11-21T07:21:25;95080.44;;;4.14;100.00
40650;BME280;26342;42.826;23.992;2023-11-21T07:23:50;95084.81;;;4.20;100.00
40650;BME280;26342;42.826;23.992;2023-11-21T07:26:16;95077.97;;;4.31;100.00
40650;BME280;26342;42.826;23.992;2023-11-21T07:28:41;95071.22;;;4.35;100.00
40650;BME280;26342;42.826;23.992;2023-11-21T07:31:06;95072.59;;;4.38;100.00
40650;BME280;26342;42.826;23.992;2023-11-21T07:33:32;95068.25;;;4.43;100.00
40650;BME280;26342;42.826;23.992;2023-11-21T07:35:57;95072.19;;;4.53;100.00
40650;BME280;26342;42.826;23.992;2023-11-21T07:38:22;95070.72;;;4.68;100.00
40650;BME280;26342;42.826;23.992;2023-11-21T07:40:48;95076.72;;;4.75;100.00
40650;BME280;26342;42.826;23.992;2023-11-21T07:43:13;95070.50;;;4.82;100.00
40650;BME280;26342;42.826;23.992;2023-11-21T07:45:39;95073.16;;;4.93;100.00
40650;BME280;26342;42.826;23.992;2023-11-21T07:48:04;95073.72;;;4.95;100.00
40650;BME280;26342;42.826;23.992;2023-11-21T07:50:30;95058.47;;;5.09;100.00
40650;BME280;26342;42.826;23.992;2023-11-21T07:52:56;95060.84;;;5.34;100.00
40650;BME280;26342;42.826;23.992;2023-11-21T07:55:21;95051.28;;;5.45;100.00
40650;BME280;26342;42.826;23.992;2023-11-21T07:57:47;95046.41;;;5.77;100.00
40650;BME280;26342;42.826;23.992;2023-11-21T08:00:13;95051.44;;;6.02;100.00
40650;BME280;26342;42.826;23.992;2023-11-21T08:02:40;95054.88;;;6.31;100.00
40650;BME280;26342;42.826;23.992;2023-11-21T08:05:11;95054.38;;;6.62;100.00
40650;BME280;26342;42.826;23.992;2023-11-21T08:07:37;95052.72;;;6.90;100.00
40650;BME280;26342;42.826;23.992;2023-11-21T08:10:03;95049.09;;;7.13;100.00
40650;BME280;26342;42.826;23.992;2023-11-21T08:12:30;95049.06;;;7.30;100.00
40650;BME280;26342;42.826;23.992;2023-11-21T08:14:55;95036.22;;;7.60;100.00
40650;BME280;26342;42.826;23.992;2023-11-21T08:17:20;95047.41;;;8.06;100.00
40650;BME280;26342;42.826;23.992;2023-11-21T08:19:46;95034.25;;;8.43;100.00
40650;BME280;26342;42.826;23.992;2023-11-21T08:22:15;95028.25;;;8.85;100.00
40650;BME280;26342;42.826;23.992;2023-11-21T08:24:41;95033.28;;;9.18;100.00
40650;BME280;26342;42.826;23.992;2023-11-21T08:27:06;95021.19;;;9.43;100.00
40650;BME280;26342;42.826;23.992;2023-11-21T08:29:32;95026.13;;;9.71;100.00
40650;BME280;26342;42.826;23.992;2023-11-21T08:31:57;95031.09;;;10.10;100.00
40650;BME280;26342;42.826;23.992;2023-11-21T08:34:23;95018.91;;;10.34;100.00
40650;BME280;26342;42.826;23.992;2023-11-21T08:36:49;95017.91;;;10.66;100.00
40650;BME280;26342;42.826;23.992;2023-11-21T08:39:16;95019.53;;;10.93;100.00
40650;BME280;26342;42.826;23.992;2023-11-21T08:41:44;95010.97;;;11.16;100.00
40650;BME280;26342;42.826;23.992;2023-11-21T08:44:09;95018.91;;;11.52;100.00
40650;BME280;26342;42.826;23.992;2023-11-21T08:46:34;95017.78;;;11.83;100.00
40650;BME280;26342;42.826;23.992;2023-11-21T08:49:02;95011.53;;;12.08;100.00
40650;BME280;26342;42.826;23.992;2023-11-21T08:51:27;95007.16;;;12.33;100.00
40650;BME280;26342;42.826;23.992;2023-11-21T08:53:52;95002.97;;;12.55;100.00
40650;BME280;26342;42.826;23.992;2023-11-21T08:56:18;95006.78;;;12.89;100.00
40650;BME280;26342;42.826;23.992;2023-11-21T08:58:45;94990.84;;;13.02;100.00
40650;BME280;26342;42.826;23.992;2023-11-21T09:01:12;94987.25;;;13.22;100.00
40650;BME280;26342;42.826;23.992;2023-11-21T09:03:37;94985.56;;;13.26;100.00
40650;BME280;26342;42.826;23.992;2023-11-21T09:06:03;94985.69;;;13.45;100.00
40650;BME280;26342;42.826;23.992;2023-11-21T09:08:29;94964.53;;;13.44;74.55
40650;BME280;26342;42.826;23.992;2023-11-21T09:10:55;94981.16;;;13.88;62.37
40650;BME280;26342;42.826;23.992;2023-11-21T09:13:20;94976.22;;;14.19;57.56
40650;BME280;26342;42.826;23.992;2023-11-21T09:15:45;94957.00;;;14.31;57.80
40650;BME280;26342;42.826;23.992;2023-11-21T09:18:14;94961.53;;;14.55;56.66
40650;BME280;26342;42.826;23.992;2023-11-21T09:20:40;94965.22;;;14.59;54.02
40650;BME280;26342;42.826;23.992;2023-11-21T09:23:06;94955.38;;;14.54;51.47
40650;BME280;26342;42.826;23.992;2023-11-21T09:25:32;94952.78;;;14.82;53.92
40650;BME280;26342;42.826;23.992;2023-11-21T09:27:58;94952.25;;;14.98;50.64
40650;BME280;26342;42.826;23.992;2023-11-21T09:30:23;94945.56;;;14.96;49.26
40650;BME280;26342;42.826;23.992;2023-11-21T09:32:50;94946.56;;;15.00;50.57
40650;BME280;26342;42.826;23.992;2023-11-21T09:35:16;94952.66;;;15.05;49.82
40650;BME280;26342;42.826;23.992;2023-11-21T09:37:43;94943.72;;;15.10;49.73
40650;BME280;26342;42.826;23.992;2023-11-21T09:40:11;94924.66;;;14.93;50.46
40650;BME280;26342;42.826;23.992;2023-11-21T09:42:50;94939.84;;;14.84;48.70
40650;BME280;26342;42.826;23.992;2023-11-21T09:47:54;94928.09;;;14.47;51.36
40650;BME280;26342;42.826;23.992;2023-11-21T09:50:21;94915.97;;;14.49;52.56
40650;BME280;26342;42.826;23.992;2023-11-21T09:53:05;94915.66;;;14.51;54.20
40650;BME280;26342;42.826;23.992;2023-11-21T09:55:36;94907.91;;;14.49;52.20
40650;BME280;26342;42.826;23.992;2023-11-21T09:58:04;94904.19;;;14.45;51.94
40650;BME280;26342;42.826;23.992;2023-11-21T10:00:33;94898.41;;;14.57;52.69
40650;BME280;26342;42.826;23.992;2023-11-21T10:02:59;94896.56;;;14.71;52.49
40650;BME280;26342;42.826;23.992;2023-11-21T10:05:25;94892.69;;;14.77;51.61
40650;BME280;26342;42.826;23.992;2023-11-21T10:07:50;94883.28;;;14.94;53.24
40650;BME280;26342;42.826;23.992;2023-11-21T10:10:19;94863.91;;;15.11;49.09
40650;BME280;26342;42.826;23.992;2023-11-21T10:12:50;94854.97;;;15.43;48.88
40650;BME280;26342;42.826;23.992;2023-11-21T10:15:23;94836.72;;;15.67;50.04
40650;BME280;26342;42.826;23.992;2023-11-21T10:17:51;94815.59;;;15.74;47.21
40650;BME280;26342;42.826;23.992;2023-11-21T10:20:19;94806.03;;;15.68;46.28
40650;BME280;26342;42.826;23.992;2023-11-21T10:22:45;94807.63;;;15.69;47.43
40650;BME280;26342;42.826;23.992;2023-11-21T10:25:12;94812.59;;;15.76;47.92
40650;BME280;26342;42.826;23.992;2023-11-21T10:27:42;94825.97;;;15.67;46.81
40650;BME280;26342;42.826;23.992;2023-11-21T10:30:09;94822.53;;;15.89;48.67
40650;BME280;26342;42.826;23.992;2023-11-21T10:32:38;94822.66;;;15.84;49.09
40650;BME280;26342;42.826;23.992;2023-11-21T10:35:04;94817.81;;;15.95;48.14
40650;BME280;26342;42.826;23.992;2023-11-21T10:37:39;94833.41;;;15.84;46.26
40650;BME280;26342;42.826;23.992;2023-11-21T10:40:10;94835.31;;;15.83;45.90
40650;BME280;26342;42.826;23.992;2023-11-21T10:42:40;94825.81;;;15.86;47.76
40650;BME280;26342;42.826;23.992;2023-11-21T10:45:06;94820.41;;;16.00;46.89
40650;BME280;26342;42.826;23.992;2023-11-21T10:47:40;94808.38;;;15.97;46.40
40650;BME280;26342;42.826;23.992;2023-11-21T10:50:07;94805.03;;;16.14;46.20
40650;BME280;26342;42.826;23.992;2023-11-21T10:52:36;94797.75;;;16.37;44.89
40650;BME280;26342;42.826;23.992;2023-11-21T10:55:16;94793.56;;;16.31;46.66
40650;BME280;26342;42.826;23.992;2023-11-21T10:57:42;94774.84;;;16.26;45.04
40650;BME280;26342;42.826;23.992;2023-11-21T11:00:08;94779.78;;;16.55;46.56
40650;BME280;26342;42.826;23.992;2023-11-21T11:02:38;94765.72;;;16.66;45.31
40650;BME280;26342;42.826;23.992;2023-11-21T11:05:04;94775.44;;;16.67;44.52
40650;BME280;26342;42.826;23.992;2023-11-21T11:07:31;94766.00;;;16.56;47.05
40650;BME280;26342;42.826;23.992;2023-11-21T11:09:59;94763.75;;;16.50;46.95
40650;BME280;26342;42.826;23.992;2023-11-21T11:12:25;94757.53;;;16.18;45.17
40650;BME280;26342;42.826;23.992;2023-11-21T11:14:51;94763.59;;;16.24;46.32
40650;BME280;26342;42.826;23.992;2023-11-21T11:17:19;94758.94;;;16.15;46.58
40650;BME280;26342;42.826;23.992;2023-11-21T11:19:49;94760.59;;;16.03;48.70
40650;BME280;26342;42.826;23.992;2023-11-21T11:22:37;94756.38;;;15.88;48.67
40650;BME280;26342;42.826;23.992;2023-11-21T11:27:54;94741.38;;;15.73;48.02
40650;BME280;26342;42.826;23.992;2023-11-21T11:36:13;94742.41;;;15.50;47.60
40650;BME280;26342;42.826;23.992;2023-11-21T11:38:45;94746.78;;;15.46;49.10
40650;BME280;26342;42.826;23.992;2023-11-21T11:41:11;94734.41;;;15.22;48.85
40650;BME280;26342;42.826;23.992;2023-11-21T11:43:37;94737.09;;;15.08;50.38
40650;BME280;26342;42.826;23.992;2023-11-21T11:46:10;94741.41;;;15.10;51.45
40650;BME280;26342;42.826;23.992;2023-11-21T11:48:39;94743.16;;;15.00;51.77
40650;BME280;26342;42.826;23.992;2023-11-21T11:51:12;94730.44;;;15.06;51.28
40650;BME280;26342;42.826;23.992;2023-11-21T11:53:46;94737.44;;;14.93;52.72
40650;BME280;26342;42.826;23.992;2023-11-21T11:56:27;94736.50;;;14.84;53.13
40650;BME280;26342;42.826;23.992;2023-11-21T11:58:55;94734.44;;;14.81;54.10
40650;BME280;26342;42.826;23.992;2023-11-21T12:01:22;94716.34;;;14.87;53.63
40650;BME280;26342;42.826;23.992;2023-11-21T12:06:57;94713.72;;;14.68;54.72
40650;BME280;26342;42.826;23.992;2023-11-21T12:09:26;94719.31;;;14.71;55.96
40650;BME280;26342;42.826;23.992;2023-11-21T12:11:52;94708.97;;;14.65;54.46
40650;BME280;26342;42.826;23.992;2023-11-21T12:14:20;94706.66;;;14.58;54.71
40650;BME280;26342;42.826;23.992;2023-11-21T12:16:45;94711.25;;;14.58;55.97
40650;BME280;26342;42.826;23.992;2023-11-21T12:19:14;94713.03;;;14.48;57.53
40650;BME280;26342;42.826;23.992;2023-11-21T12:21:40;94711.44;;;14.47;57.68
40650;BME280;26342;42.826;23.992;2023-11-21T12:24:09;94715.41;;;14.50;57.12
40650;BME280;26342;42.826;23.992;2023-11-21T12:26:35;94711.19;;;14.44;56.97
40650;BME280;26342;42.826;23.992;2023-11-21T12:29:03;94718.72;;;14.47;57.35
40650;BME280;26342;42.826;23.992;2023-11-21T12:31:30;94719.69;;;14.51;60.74
40650;BME280;26342;42.826;23.992;2023-11-21T12:33:56;94730.44;;;14.51;59.25
40650;BME280;26342;42.826;23.992;2023-11-21T12:36:22;94726.31;;;14.40;59.32
40650;BME280;26342;42.826;23.992;2023-11-21T12:38:48;94729.31;;;14.38;59.38
40650;BME280;26342;42.826;23.992;2023-11-21T12:41:15;94736.84;;;14.36;59.15
40650;BME280;26342;42.826;23.992;2023-11-21T12:43:42;94717.75;;;14.24;57.63
40650;BME280;26342;42.826;23.992;2023-11-21T12:46:10;94734.66;;;14.38;60.39
40650;BME280;26342;42.826;23.992;2023-11-21T12:48:41;94739.25;;;14.38;57.04
40650;BME280;26342;42.826;23.992;2023-11-21T12:51:08;94753.25;;;14.35;61.00
40650;BME280;26342;42.826;23.992;2023-11-21T12:53:35;94737.03;;;14.26;61.41
40650;BME280;26342;42.826;23.992;2023-11-21T12:56:07;94749.22;;;14.18;59.65
40650;BME280;26342;42.826;23.992;2023-11-21T12:58:35;94740.97;;;14.15;59.21
40650;BME280;26342;42.826;23.992;2023-11-21T13:01:01;94747.13;;;14.15;59.78